Time;durP1;ratioP1;P1;durP2;ratioP2;P2;SDS_P1;SDS_P2;PMS_P1;PMS_P2;Temp;Humidity;BMP_temperature;BMP_pressure;BME280_temperature;BME280_humidity;BME280_pressure;Samples;Min_cycle;Max_cycle;Signal;HPM_P1;HPM_P2
2022/11/19 00:01:18;;;;;;;10.07;5.03;;;;;;;9.47;95.01;99023.97;6094981;23;20446;-82
2022/11/19 00:03:45;;;;;;;8.70;4.63;;;;;;;9.55;94.90;99024.06;6169027;23;20032;-82
2022/11/19 00:06:23;;;;;;;8.43;4.80;;;;;;;9.53;94.36;99028.66;6167354;23;20029;-82
2022/11/19 00:08:50;;;;;;;10.90;5.35;;;;;;;9.59;94.65;99029.88;6141720;23;20030;-83
2022/11/19 00:14:05;;;;;;;9.20;4.47;;;;;;;9.61;94.24;99019.97;6096952;23;20353;-81
2022/11/19 00:16:32;;;;;;;7.68;3.92;;;;;;;9.61;93.86;99020.81;6143805;23;20014;-81
2022/11/19 00:18:59;;;;;;;9.38;4.90;;;;;;;9.63;93.65;99020.66;6168520;23;20464;-81
2022/11/19 00:21:25;;;;;;;10.05;4.82;;;;;;;9.63;93.81;99029.44;6168366;23;20030;-81
2022/11/19 00:23:53;;;;;;;10.48;5.10;;;;;;;9.61;93.89;99025.28;6143225;23;20024;-82
2022/11/19 00:26:21;;;;;;;10.68;4.68;;;;;;;9.62;93.94;99035.75;6168898;23;20366;-81
2022/11/19 00:28:48;;;;;;;12.65;4.82;;;;;;;9.63;93.71;99032.09;6120096;23;20068;-81
2022/11/19 00:31:15;;;;;;;10.52;4.38;;;;;;;9.62;93.83;99033.09;6144296;23;20072;-81
2022/11/19 00:33:43;;;;;;;9.30;4.78;;;;;;;9.57;94.37;99035.34;6143900;23;20100;-81
2022/11/19 00:36:12;;;;;;;8.30;4.57;;;;;;;9.53;94.18;99033.97;6169011;23;20112;-80
2022/11/19 00:38:39;;;;;;;7.45;4.65;;;;;;;9.51;94.69;99034.09;6169289;23;20093;-81
2022/11/19 00:41:06;;;;;;;8.05;4.57;;;;;;;9.52;94.72;99030.50;6119747;23;20037;-80
2022/11/19 00:43:48;;;;;;;8.38;5.47;;;;;;;9.52;95.25;99025.19;6167971;23;20454;-80
2022/11/19 00:46:29;;;;;;;7.85;4.05;;;;;;;9.41;95.62;99027.19;6140420;23;20056;-82
2022/11/19 00:48:57;;;;;;;11.45;5.00;;;;;;;9.47;95.60;99019.50;6143946;23;20485;-81
2022/11/19 00:51:26;;;;;;;8.38;4.78;;;;;;;9.49;95.50;99021.97;6143942;23;20350;-81
2022/11/19 00:53:53;;;;;;;10.70;4.55;;;;;;;9.43;95.87;99028.72;6193350;23;20045;-81
2022/11/19 00:56:22;;;;;;;6.65;4.18;;;;;;;9.44;95.80;99022.47;6168388;23;20362;-81
2022/11/19 00:58:49;;;;;;;7.15;4.10;;;;;;;9.42;96.23;99034.19;6119202;23;20025;-81
2022/11/19 01:01:18;;;;;;;7.82;4.75;;;;;;;9.44;96.00;99026.91;6193513;23;20029;-81
2022/11/19 01:03:46;;;;;;;4.75;3.22;;;;;;;9.43;96.10;99034.03;6144022;23;20076;-80
2022/11/19 01:06:14;;;;;;;5.65;3.47;;;;;;;9.42;96.21;99035.00;6119707;23;20022;-81
2022/11/19 01:08:46;;;;;;;3.05;2.75;;;;;;;9.41;95.69;99038.63;6167357;23;20025;-81
2022/11/19 01:11:16;;;;;;;10.75;4.53;;;;;;;9.42;95.75;99034.19;6193058;23;20021;-80
2022/11/19 01:13:43;;;;;;;4.38;2.65;;;;;;;9.39;96.09;99037.97;6094776;23;20517;-80
2022/11/19 01:16:12;;;;;;;5.32;2.70;;;;;;;9.42;95.72;99034.19;6119600;23;20487;-81
2022/11/19 01:18:40;;;;;;;3.75;2.92;;;;;;;9.39;96.17;99037.97;6168369;23;20029;-81
2022/11/19 01:21:09;;;;;;;6.95;3.20;;;;;;;9.40;95.96;99036.16;6143349;23;20583;-80
2022/11/19 01:23:37;;;;;;;5.63;3.55;;;;;;;9.40;96.27;99044.91;6143399;23;20025;-80
2022/11/19 01:26:04;;;;;;;4.57;2.80;;;;;;;9.40;96.14;99044.09;6218407;22;20025;-81
2022/11/19 01:28:30;;;;;;;5.13;3.30;;;;;;;9.42;95.82;99040.31;6142541;23;20049;-81
2022/11/19 01:30:57;;;;;;;9.50;4.72;;;;;;;9.41;95.93;99045.75;6192913;23;20100;-80
2022/11/19 01:33:24;;;;;;;5.20;2.78;;;;;;;9.42;96.28;99044.78;6168192;23;20027;-80
2022/11/19 01:35:58;;;;;;;3.53;3.15;;;;;;;9.34;96.37;99038.41;6143915;23;20122;-80
2022/11/19 01:38:26;;;;;;;2.97;2.67;;;;;;;9.39;96.80;99037.97;6167458;23;20395;-80
2022/11/19 01:40:53;;;;;;;3.63;2.90;;;;;;;9.39;96.72;99042.41;6167739;23;20423;-81
2022/11/19 01:43:37;;;;;;;4.90;2.92;;;;;;;9.38;96.50;99040.75;6144194;23;20088;-80
2022/11/19 01:46:17;;;;;;;4.70;2.60;;;;;;;9.30;96.95;99038.84;6073682;23;20084;-80
2022/11/19 01:48:53;;;;;;;6.00;3.05;;;;;;;9.31;97.07;99040.50;6093638;23;20018;-81
2022/11/19 01:51:28;;;;;;;4.82;2.60;;;;;;;9.35;96.78;99034.75;6143087;23;20322;-80
2022/11/19 01:53:58;;;;;;;3.97;2.80;;;;;;;9.35;96.87;99040.06;6167973;23;20017;-81
2022/11/19 01:56:25;;;;;;;10.88;3.60;;;;;;;9.40;96.52;99046.75;6167857;23;20049;-80
2022/11/19 01:58:58;;;;;;;8.20;5.25;;;;;;;9.41;95.80;99051.03;6167577;23;20018;-81
2022/11/19 02:01:24;;;;;;;6.13;2.97;;;;;;;9.38;96.20;99046.88;6168218;23;20036;-80
2022/11/19 02:03:51;;;;;;;3.85;2.72;;;;;;;9.40;95.93;99047.56;6193246;23;20385;-81
2022/11/19 02:06:18;;;;;;;4.22;2.97;;;;;;;9.39;95.77;99045.91;6142827;23;20013;-80
2022/11/19 02:08:49;;;;;;;4.35;3.05;;;;;;;9.36;95.98;99043.53;6182927;22;20020;-80
2022/11/19 02:11:24;;;;;;;5.82;3.45;;;;;;;9.31;95.82;99049.31;6117577;23;20030;-80
2022/11/19 02:14:22;;;;;;;3.80;3.22;;;;;;;9.28;96.34;99049.56;6141349;23;20021;-80
2022/11/19 02:17:01;;;;;;;8.02;3.75;;;;;;;9.27;96.40;99044.44;6094819;23;20021;-80
2022/11/19 02:20:05;;;;;;;3.42;2.90;;;;;;;9.24;96.07;99055.34;6168600;23;20026;-80
2022/11/19 02:23:09;;;;;;;5.45;3.13;;;;;;;9.24;96.07;99050.88;6080835;23;20036;-81
2022/11/19 02:25:38;;;;;;;6.40;2.55;;;;;;;9.29;96.38;99048.59;6099009;23;20025;-81
2022/11/19 02:28:37;;;;;;;4.25;3.40;;;;;;;9.21;96.02;99052.94;6169961;23;20021;-80
2022/11/19 02:31:07;;;;;;;5.18;3.17;;;;;;;9.24;96.61;99055.34;6099604;23;20051;-81
2022/11/19 02:33:39;;;;;;;7.38;3.00;;;;;;;9.24;96.03;99053.50;6169086;23;20065;-81
2022/11/19 02:36:18;;;;;;;7.37;2.77;;;;;;;9.21;96.14;99050.31;6144711;23;20033;-81
2022/11/19 02:38:53;;;;;;;7.60;2.65;;;;;;;9.23;96.43;99053.66;6168434;23;20021;-81
2022/11/19 02:41:43;;;;;;;3.42;2.60;;;;;;;9.20;96.60;99059.25;6169037;23;20022;-81
2022/11/19 02:47:47;;;;;;;5.15;2.72;;;;;;;9.22;96.74;99052.81;6053445;23;20076;-81
2022/11/19 02:50:21;;;;;;;5.53;4.07;;;;;;;9.25;96.07;99052.50;6078269;23;20025;-80
2022/11/19 02:52:48;;;;;;;7.13;4.15;;;;;;;9.31;96.57;99056.38;6143265;23;20124;-81
2022/11/19 02:55:17;;;;;;;7.13;4.13;;;;;;;9.27;96.82;99050.56;6170731;23;20017;-81
2022/11/19 02:57:51;;;;;;;8.80;4.90;;;;;;;9.27;96.65;99061.16;6193946;23;20021;-81
2022/11/19 03:06:11;;;;;;;8.35;5.18;;;;;;;9.23;97.01;99069.53;6094054;23;20020;-80
2022/11/19 03:08:38;;;;;;;2.88;2.13;;;;;;;9.07;94.71;99086.06;6168979;23;20092;-81
2022/11/19 03:11:21;;;;;;;1.52;1.17;;;;;;;8.72;89.00;99090.16;6195136;23;20021;-81
2022/11/19 03:17:00;;;;;;;1.65;1.00;;;;;;;8.66;89.14;99104.00;6104798;23;20041;-81
2022/11/19 03:19:36;;;;;;;1.55;1.20;;;;;;;8.38;87.56;99114.41;6122617;23;20069;-80
2022/11/19 03:22:12;;;;;;;1.10;1.00;;;;;;;8.47;88.11;99116.28;6075301;23;20029;-80
2022/11/19 03:24:45;;;;;;;1.70;1.10;;;;;;;8.31;85.59;99123.03;6042321;23;20022;-81
2022/11/19 03:27:15;;;;;;;1.55;1.13;;;;;;;8.16;85.56;99112.88;6066040;23;20029;-81
2022/11/19 03:29:46;;;;;;;2.13;1.00;;;;;;;8.13;87.13;99114.97;6065910;23;20350;-81
2022/11/19 03:32:17;;;;;;;1.83;1.10;;;;;;;8.05;86.58;99116.47;6088389;23;20097;-81
2022/11/19 03:34:45;;;;;;;0.90;0.85;;;;;;;8.03;86.17;99118.41;6089362;23;20248;-80
2022/11/19 03:37:13;;;;;;;1.35;1.10;;;;;;;7.87;85.92;99122.59;6065712;23;20021;-80
2022/11/19 03:39:41;;;;;;;2.00;1.25;;;;;;;7.99;85.99;99127.63;6066949;23;20013;-80
2022/11/19 03:42:10;;;;;;;1.80;1.30;;;;;;;7.96;86.38;99127.91;6088442;23;20035;-80
2022/11/19 03:44:44;;;;;;;1.60;1.42;;;;;;;7.79;84.84;99125.91;6088041;23;20496;-80
2022/11/19 03:47:15;;;;;;;1.42;1.27;;;;;;;7.81;85.38;99138.00;6040705;23;20026;-80
2022/11/19 03:49:45;;;;;;;1.88;1.33;;;;;;;7.80;85.06;99141.59;6117340;23;20041;-82
2022/11/19 03:52:14;;;;;;;1.73;1.20;;;;;;;7.68;84.77;99144.50;6169340;23;20025;-80
2022/11/19 03:54:41;;;;;;;1.65;1.17;;;;;;;7.84;85.83;99150.13;6194912;23;20025;-80
2022/11/19 03:57:11;;;;;;;1.70;1.40;;;;;;;7.83;84.67;99149.25;6168941;23;20076;-80
2022/11/19 03:59:37;;;;;;;1.40;1.15;;;;;;;7.86;85.18;99150.84;6120047;23;20475;-80
2022/11/19 04:02:07;;;;;;;2.63;1.45;;;;;;;7.73;83.55;99151.03;6144025;23;20040;-81
2022/11/19 04:04:37;;;;;;;1.95;1.60;;;;;;;7.75;83.21;99153.56;6145236;23;21020;-80
2022/11/19 04:07:12;;;;;;;2.45;1.60;;;;;;;7.77;83.30;99149.81;6167433;23;20029;-80
2022/11/19 04:09:39;;;;;;;4.07;1.70;;;;;;;7.65;83.19;99155.34;6144334;23;20025;-80
2022/11/19 04:12:08;;;;;;;2.28;1.80;;;;;;;7.63;82.82;99162.56;6193403;23;20036;-81
2022/11/19 04:14:35;;;;;;;3.22;1.98;;;;;;;7.65;82.55;99147.41;6144623;23;20092;-80
2022/11/19 04:17:02;;;;;;;2.95;2.15;;;;;;;7.64;82.48;99146.59;6144181;23;20028;-80
2022/11/19 04:19:28;;;;;;;2.45;1.98;;;;;;;7.60;82.86;99164.47;6168984;23;20346;-81
2022/11/19 04:21:55;;;;;;;3.38;2.00;;;;;;;7.56;83.38;99160.47;6144767;23;20024;-80
2022/11/19 04:24:22;;;;;;;3.88;2.00;;;;;;;7.52;82.45;99156.41;6166291;23;20394;-80
2022/11/19 04:26:48;;;;;;;2.83;2.30;;;;;;;7.55;82.16;99163.22;6168959;23;20048;-81
2022/11/19 04:29:15;;;;;;;2.92;2.15;;;;;;;7.56;82.22;99155.16;6194243;23;20398;-81
2022/11/19 04:31:42;;;;;;;4.38;2.45;;;;;;;7.40;81.42;99165.38;6138674;23;20487;-81
2022/11/19 04:34:09;;;;;;;4.63;2.88;;;;;;;7.44;82.19;99158.88;6137619;23;20101;-81
2022/11/19 04:36:36;;;;;;;3.88;2.85;;;;;;;7.42;82.62;99166.09;6163907;23;20026;-81
2022/11/19 04:39:03;;;;;;;4.25;2.38;;;;;;;7.52;81.22;99166.97;6163917;23;20030;-80
2022/11/19 04:41:29;;;;;;;4.03;2.78;;;;;;;7.51;81.83;99169.75;6089139;23;20063;-81
2022/11/19 04:43:56;;;;;;;3.55;2.45;;;;;;;7.56;81.07;99173.66;6090879;23;20026;-81
2022/11/19 04:46:23;;;;;;;6.28;2.78;;;;;;;7.38;81.18;99167.34;6114570;23;20025;-80
2022/11/19 04:48:49;;;;;;;3.67;2.55;;;;;;;7.33;81.41;99169.53;6115574;23;20649;-80
2022/11/19 04:51:16;;;;;;;4.00;2.60;;;;;;;7.27;81.89;99177.97;6089869;23;20029;-81
2022/11/19 04:53:43;;;;;;;5.53;2.78;;;;;;;7.37;82.81;99171.75;6113381;23;20789;-80
2022/11/19 04:56:10;;;;;;;3.08;2.30;;;;;;;7.41;81.77;99182.09;6115001;23;20096;-80
2022/11/19 04:58:36;;;;;;;4.80;3.05;;;;;;;7.34;81.67;99171.19;6111508;23;20025;-80
2022/11/19 05:01:03;;;;;;;3.08;2.28;;;;;;;7.31;80.55;99174.94;6193217;23;20022;-80
2022/11/19 05:03:30;;;;;;;4.40;2.75;;;;;;;7.28;80.92;99180.50;6119891;23;20014;-80
2022/11/19 05:05:57;;;;;;;3.80;2.53;;;;;;;7.29;81.29;99174.22;6167856;23;20025;-80
2022/11/19 05:08:23;;;;;;;3.63;2.90;;;;;;;7.20;81.04;99180.31;6193822;23;20022;-81
2022/11/19 05:10:50;;;;;;;5.10;3.10;;;;;;;7.17;81.43;99188.47;6169374;23;20022;-80
2022/11/19 05:13:17;;;;;;;3.05;2.47;;;;;;;7.22;81.17;99177.53;6168096;23;20442;-81
2022/11/19 05:15:44;;;;;;;4.28;2.70;;;;;;;7.20;81.24;99180.31;6167888;23;20048;-81
2022/11/19 05:18:11;;;;;;;4.38;2.95;;;;;;;7.15;81.15;99180.69;6143343;23;20024;-80
2022/11/19 05:20:38;;;;;;;6.20;2.30;;;;;;;7.06;81.09;99181.47;6143116;23;20026;-80
2022/11/19 05:23:05;;;;;;;5.03;3.05;;;;;;;7.07;81.75;99184.94;6167080;23;20354;-80
2022/11/19 05:25:32;;;;;;;5.20;2.65;;;;;;;7.05;81.41;99182.44;6168595;23;20017;-80
2022/11/19 05:27:58;;;;;;;4.18;2.80;;;;;;;7.08;81.51;99187.44;6168202;23;20017;-81
2022/11/19 05:30:25;;;;;;;4.32;2.78;;;;;;;7.05;81.39;99192.16;6194063;23;20034;-80
2022/11/19 05:32:52;;;;;;;4.03;2.85;;;;;;;7.09;80.96;99190.94;6065378;23;20092;-80
2022/11/19 05:35:18;;;;;;;5.45;2.78;;;;;;;7.04;81.87;99186.03;6089548;23;20030;-80
2022/11/19 05:37:49;;;;;;;4.03;2.70;;;;;;;7.02;81.08;99193.25;6090964;23;20022;-80
2022/11/19 05:40:16;;;;;;;4.82;3.17;;;;;;;6.98;80.20;99185.72;6089329;23;20030;-80
2022/11/19 05:42:43;;;;;;;5.28;3.47;;;;;;;7.02;80.70;99195.91;6115805;23;20053;-80
2022/11/19 05:45:10;;;;;;;3.88;3.13;;;;;;;7.03;80.67;99194.09;6192166;23;20812;-81
2022/11/19 05:47:37;;;;;;;4.50;2.85;;;;;;;7.00;81.13;99192.56;6168421;23;20018;-80
2022/11/19 05:50:04;;;;;;;4.30;2.90;;;;;;;6.97;81.18;99190.13;6162791;23;20109;-80
2022/11/19 05:52:31;;;;;;;6.15;3.10;;;;;;;7.07;81.28;99193.72;6089993;23;20025;-80
2022/11/19 05:54:58;;;;;;;5.20;3.53;;;;;;;7.10;79.56;99204.00;6139050;23;20028;-80
2022/11/19 05:57:24;;;;;;;4.50;3.33;;;;;;;7.06;79.23;99197.28;6114732;23;20453;-80
2022/11/19 05:59:51;;;;;;;5.72;3.40;;;;;;;6.98;79.77;99196.28;6114511;23;20093;-80
2022/11/19 06:02:18;;;;;;;7.18;3.80;;;;;;;7.16;79.08;99197.38;6114577;23;20037;-80
2022/11/19 06:04:44;;;;;;;5.35;3.50;;;;;;;7.02;80.58;99197.69;6089853;23;20033;-81
2022/11/19 06:07:11;;;;;;;5.95;3.78;;;;;;;6.98;79.64;99204.19;6089796;23;20434;-81
2022/11/19 06:09:38;;;;;;;6.60;4.50;;;;;;;7.03;79.22;99208.13;6139162;23;20021;-81
2022/11/19 06:12:05;;;;;;;6.45;4.28;;;;;;;7.04;80.36;99214.22;6112869;23;20032;-80
2022/11/19 06:14:32;;;;;;;4.50;3.22;;;;;;;7.02;79.42;99210.88;6089603;23;20048;-82
2022/11/19 06:16:59;;;;;;;5.25;3.63;;;;;;;6.91;81.08;99214.41;6114697;23;20018;-81
2022/11/19 06:19:26;;;;;;;5.63;3.70;;;;;;;6.93;80.18;99213.31;6084802;23;20027;-81
2022/11/19 06:21:53;;;;;;;6.30;3.97;;;;;;;6.92;79.33;99219.59;6087621;23;20030;-81
2022/11/19 06:24:20;;;;;;;6.18;3.90;;;;;;;6.86;80.14;99217.44;6089652;23;20022;-81
2022/11/19 06:26:47;;;;;;;7.65;4.60;;;;;;;6.86;79.75;99221.88;6113459;23;20088;-81
2022/11/19 06:29:15;;;;;;;6.97;4.18;;;;;;;6.72;80.03;99228.31;6138606;23;20042;-81
2022/11/19 06:31:43;;;;;;;6.93;4.13;;;;;;;6.71;79.88;99230.09;6112701;23;20398;-81
2022/11/19 06:34:10;;;;;;;8.13;4.85;;;;;;;6.69;79.87;99233.81;6113931;23;20473;-80
2022/11/19 06:36:37;;;;;;;7.75;4.80;;;;;;;6.65;79.11;99227.97;6065414;23;20046;-81
2022/11/19 06:39:10;;;;;;;7.65;4.68;;;;;;;6.64;79.66;99234.22;6089051;23;20457;-81
2022/11/19 06:41:37;;;;;;;6.63;4.40;;;;;;;6.69;79.52;99239.97;6113012;23;20033;-81
2022/11/19 06:44:03;;;;;;;8.80;5.00;;;;;;;6.61;79.68;99234.44;6138173;23;20058;-81
2022/11/19 06:46:30;;;;;;;6.88;4.60;;;;;;;6.62;79.78;99238.78;6113724;23;20037;-81
2022/11/19 06:48:57;;;;;;;8.10;4.90;;;;;;;6.66;79.06;99237.53;6112836;23;20021;-81
2022/11/19 06:51:24;;;;;;;7.03;4.65;;;;;;;6.69;79.19;99237.31;6113226;23;20109;-81
2022/11/19 06:53:50;;;;;;;6.63;4.20;;;;;;;6.65;79.07;99246.44;6113372;23;20029;-81
2022/11/19 06:56:17;;;;;;;7.97;4.80;;;;;;;6.61;78.75;99244.16;6138417;23;20342;-81
2022/11/19 06:58:44;;;;;;;7.40;4.78;;;;;;;6.60;79.08;99250.41;6087523;23;20088;-80
2022/11/19 07:01:13;;;;;;;6.78;4.53;;;;;;;6.62;79.38;99251.13;6138053;23;20092;-80
2022/11/19 07:03:40;;;;;;;7.72;4.85;;;;;;;6.65;79.03;99253.50;6137618;23;20307;-81
2022/11/19 07:06:07;;;;;;;9.18;5.15;;;;;;;6.60;78.48;99259.16;6139188;23;20101;-81
2022/11/19 07:08:35;;;;;;;8.55;4.97;;;;;;;6.63;78.26;99255.44;6114170;23;20402;-81
2022/11/19 07:11:24;;;;;;;10.63;6.32;;;;;;;6.46;78.24;99277.88;6114769;23;20026;-80
2022/11/19 07:13:58;;;;;;;9.93;5.80;;;;;;;6.51;78.73;99281.84;6063265;23;20030;-82
2022/11/19 07:16:28;;;;;;;9.48;5.53;;;;;;;6.36;78.07;99282.22;6113053;23;20057;-80
2022/11/19 07:18:59;;;;;;;11.82;6.32;;;;;;;6.28;76.60;99285.47;6090454;23;20454;-81
2022/11/19 07:21:27;;;;;;;10.68;6.13;;;;;;;6.37;76.92;99278.66;6111334;23;20026;-80
2022/11/19 07:23:57;;;;;;;12.07;6.28;;;;;;;6.40;76.49;99279.22;6085244;23;20438;-80
2022/11/19 07:26:25;;;;;;;11.93;6.75;;;;;;;6.33;78.25;99283.31;6063930;23;20049;-81
2022/11/19 07:28:51;;;;;;;13.27;7.03;;;;;;;6.14;78.21;99291.84;6062246;23;20085;-81
2022/11/19 07:31:18;;;;;;;10.73;6.70;;;;;;;6.21;77.75;99292.22;6089430;23;20018;-81
2022/11/19 07:33:45;;;;;;;12.40;6.10;;;;;;;6.14;78.57;99289.22;6122004;23;20036;-81
2022/11/19 07:36:12;;;;;;;14.13;7.18;;;;;;;6.08;78.70;99301.09;6090972;23;20088;-80
2022/11/19 07:38:45;;;;;;;11.65;6.85;;;;;;;6.08;78.33;99298.44;6113808;23;20018;-81
2022/11/19 07:43:57;;;;;;;14.18;7.28;;;;;;;6.01;78.82;99299.88;6043331;23;20405;-81
2022/11/19 07:46:24;;;;;;;10.70;6.68;;;;;;;6.01;78.51;99302.53;6139496;23;20029;-81
2022/11/19 07:48:55;;;;;;;12.90;7.07;;;;;;;6.15;77.84;99301.41;6114544;23;20080;-80
2022/11/19 07:51:22;;;;;;;13.10;6.88;;;;;;;6.08;78.47;99301.09;6064895;23;20391;-81
2022/11/19 07:53:49;;;;;;;11.80;6.40;;;;;;;6.03;78.02;99307.66;6088041;23;20045;-80
2022/11/19 07:56:17;;;;;;;13.40;6.70;;;;;;;6.01;78.86;99302.53;6085106;23;20054;-80
2022/11/19 07:58:44;;;;;;;11.85;6.78;;;;;;;6.12;78.26;99299.03;6038174;23;20455;-80
2022/11/19 08:01:19;;;;;;;13.73;7.07;;;;;;;6.03;78.10;99302.38;6066204;23;20033;-81
2022/11/19 08:03:47;;;;;;;11.68;6.88;;;;;;;5.93;78.54;99298.75;6018181;23;20026;-83
2022/11/19 08:06:23;;;;;;;12.88;6.60;;;;;;;6.06;78.98;99303.00;6092418;23;20025;-81
2022/11/19 08:08:49;;;;;;;11.88;7.18;;;;;;;6.11;78.84;99307.91;6113908;23;20030;-81
2022/11/19 08:11:18;;;;;;;11.07;6.32;;;;;;;5.94;78.89;99303.94;6112875;23;21495;-81
2022/11/19 08:13:45;;;;;;;11.20;6.20;;;;;;;6.05;78.53;99305.75;6138605;23;20139;-80
2022/11/19 08:19:10;;;;;;;13.27;7.57;;;;;;;5.88;79.19;99312.31;6117033;23;20397;-83
2022/11/19 08:21:41;;;;;;;11.52;6.43;;;;;;;6.00;78.78;99318.44;6141942;23;20033;-83
2022/11/19 08:24:09;;;;;;;9.25;5.90;;;;;;;6.01;79.28;99315.69;6117629;23;20085;-84
2022/11/19 08:26:36;;;;;;;10.40;5.85;;;;;;;5.95;79.17;99312.69;6119926;23;20025;-83
2022/11/19 08:29:04;;;;;;;8.15;5.28;;;;;;;5.95;79.21;99316.16;6114374;23;20046;-83
2022/11/19 08:31:30;;;;;;;9.40;5.15;;;;;;;5.96;79.07;99315.22;6064986;23;20033;-84
2022/11/19 08:33:57;;;;;;;10.52;5.57;;;;;;;6.09;78.74;99318.56;6114515;23;20028;-83
2022/11/19 08:36:24;;;;;;;9.73;5.43;;;;;;;6.05;78.47;99313.66;6119319;23;20040;-84
2022/11/19 08:38:51;;;;;;;10.85;5.88;;;;;;;5.93;78.30;99319.84;6119828;23;20021;-84
2022/11/19 08:44:03;;;;;;;11.70;5.40;;;;;;;5.97;79.47;99326.59;6088777;23;20608;-81
2022/11/19 08:46:30;;;;;;;10.50;5.78;;;;;;;6.00;80.15;99331.63;6115074;23;20450;-81
2022/11/19 08:48:56;;;;;;;8.88;5.60;;;;;;;5.99;80.01;99336.06;6143373;23;20092;-81
2022/11/19 08:51:23;;;;;;;7.80;4.95;;;;;;;6.06;77.99;99325.88;6143442;23;20021;-81
2022/11/19 08:53:51;;;;;;;8.40;5.07;;;;;;;6.09;78.69;99328.28;6143692;23;20453;-81
2022/11/19 08:56:19;;;;;;;8.77;5.05;;;;;;;6.11;79.17;99331.63;6120062;23;20033;-81
2022/11/19 08:58:46;;;;;;;10.70;5.55;;;;;;;6.14;78.42;99334.03;6118528;23;20549;-81
2022/11/19 09:01:15;;;;;;;8.80;5.40;;;;;;;6.17;78.21;99336.41;6168407;23;20084;-80
2022/11/19 09:03:42;;;;;;;9.95;5.57;;;;;;;6.13;78.95;99328.84;6168194;23;20033;-80
2022/11/19 09:06:10;;;;;;;8.75;5.28;;;;;;;6.23;77.95;99335.09;6119146;23;20045;-81
2022/11/19 09:08:37;;;;;;;11.65;5.28;;;;;;;6.23;77.09;99328.03;6118151;23;20081;-79
2022/11/19 09:11:12;;;;;;;8.68;5.47;;;;;;;6.14;77.69;99334.03;6143219;23;20091;-78
2022/11/19 09:13:39;;;;;;;10.70;5.53;;;;;;;6.13;78.37;99332.38;6117455;23;20044;-78
2022/11/19 09:16:07;;;;;;;10.02;5.80;;;;;;;6.17;78.78;99343.50;6143218;23;20024;-78
2022/11/19 09:18:37;;;;;;;9.35;5.55;;;;;;;6.12;78.83;99340.38;6176075;23;20024;-78
2022/11/19 09:21:06;;;;;;;9.18;5.57;;;;;;;6.14;79.24;99349.00;6092779;23;20468;-79
2022/11/19 09:23:32;;;;;;;11.55;7.05;;;;;;;6.06;79.03;99352.25;6143623;23;20029;-79
2022/11/19 09:26:03;;;;;;;13.45;7.70;;;;;;;6.10;79.44;99348.38;6168352;23;20017;-80
2022/11/19 09:28:30;;;;;;;10.98;6.65;;;;;;;6.01;78.95;99346.50;6167545;23;20100;-80
2022/11/19 09:30:58;;;;;;;12.35;7.20;;;;;;;6.02;79.51;99354.25;6193222;23;20029;-81
2022/11/19 09:33:25;;;;;;;13.57;7.32;;;;;;;6.12;78.39;99362.31;6193381;23;20076;-79
2022/11/19 09:35:52;;;;;;;11.55;6.72;;;;;;;6.06;78.95;99350.44;6066615;23;20022;-79
2022/11/19 09:38:19;;;;;;;10.70;6.13;;;;;;;6.04;79.52;99354.16;6167715;23;20685;-80
2022/11/19 09:40:48;;;;;;;13.82;7.40;;;;;;;6.02;79.99;99356.91;6168522;23;20072;-79
2022/11/19 09:43:34;;;;;;;12.35;6.97;;;;;;;5.97;80.03;99355.56;6161959;23;20033;-79
2022/11/19 09:46:13;;;;;;;13.18;7.43;;;;;;;5.90;80.03;99362.25;6138955;23;20029;-79
2022/11/19 09:48:40;;;;;;;15.40;7.40;;;;;;;6.03;80.21;99355.09;6162770;23;20029;-79
2022/11/19 09:51:11;;;;;;;13.05;7.45;;;;;;;6.11;80.00;99354.50;6163754;23;20319;-79
2022/11/19 09:53:47;;;;;;;13.70;7.93;;;;;;;6.00;80.45;99360.59;6160800;23;20021;-80
2022/11/19 09:56:17;;;;;;;15.25;8.00;;;;;;;6.00;80.16;99353.53;6167312;23;20017;-79
2022/11/19 09:58:44;;;;;;;12.77;7.38;;;;;;;6.04;80.30;99367.34;6143202;23;20025;-79
2022/11/19 10:01:16;;;;;;;12.63;7.18;;;;;;;6.04;80.35;99362.06;6193060;23;20026;-80
2022/11/19 10:03:48;;;;;;;12.65;7.38;;;;;;;6.03;81.10;99365.63;6167680;23;20117;-79
2022/11/19 10:06:18;;;;;;;14.43;7.57;;;;;;;6.09;81.62;99371.28;6167334;23;20053;-79
2022/11/19 10:09:01;;;;;;;12.57;7.20;;;;;;;6.01;80.79;99378.94;6192787;23;20013;-79
2022/11/19 10:11:59;;;;;;;12.90;6.75;;;;;;;6.12;79.78;99378.13;6167927;23;20092;-80
2022/11/19 10:14:44;;;;;;;13.77;8.23;;;;;;;6.05;79.55;99367.19;6121115;23;20026;-80
2022/11/19 10:17:35;;;;;;;12.20;7.22;;;;;;;6.05;80.05;99377.72;6145378;23;20022;-79
2022/11/19 10:20:13;;;;;;;17.73;8.60;;;;;;;5.98;80.13;99368.66;6126983;23;20022;-79
2022/11/19 10:22:55;;;;;;;12.77;8.45;;;;;;;5.97;81.16;99361.69;6144302;23;20073;-79
2022/11/19 10:25:44;;;;;;;14.30;8.07;;;;;;;5.93;82.07;99364.63;6142887;23;20445;-79
2022/11/19 10:28:18;;;;;;;14.43;8.18;;;;;;;5.99;81.36;99357.13;6125663;23;20460;-79
2022/11/19 10:30:50;;;;;;;14.32;7.78;;;;;;;6.00;80.95;99366.72;6141722;23;20028;-80
2022/11/19 10:33:28;;;;;;;14.65;7.80;;;;;;;5.93;81.94;99352.31;6118906;23;20346;-79
2022/11/19 10:35:58;;;;;;;16.00;8.10;;;;;;;6.07;81.37;99351.28;6142346;23;20025;-79
2022/11/19 10:38:34;;;;;;;13.07;7.07;;;;;;;6.12;80.76;99343.00;6141968;23;20063;-81
2022/11/19 10:41:13;;;;;;;14.48;7.28;;;;;;;5.89;81.34;99348.22;6144931;23;20022;-79
2022/11/19 10:44:01;;;;;;;15.75;7.78;;;;;;;5.87;82.11;99358.88;6121318;23;20025;-80
2022/11/19 10:46:28;;;;;;;15.13;8.35;;;;;;;5.95;82.76;99349.56;6118470;23;20017;-80
2022/11/19 10:48:57;;;;;;;15.02;8.23;;;;;;;5.91;82.89;99350.75;6143947;23;20024;-80
2022/11/19 10:51:26;;;;;;;15.93;8.68;;;;;;;6.01;81.55;99343.84;6120608;23;20108;-80
2022/11/19 10:53:54;;;;;;;13.45;7.78;;;;;;;5.97;82.00;99340.59;6169819;23;20017;-80
2022/11/19 10:56:30;;;;;;;15.30;8.20;;;;;;;5.90;83.05;99354.34;6168630;23;20066;-80
2022/11/19 10:59:02;;;;;;;12.82;7.15;;;;;;;5.94;81.28;99343.47;6144214;23;20076;-79
2022/11/19 11:01:36;;;;;;;16.67;8.23;;;;;;;5.82;82.37;99350.47;6117952;23;20028;-79
2022/11/19 11:04:18;;;;;;;13.85;7.95;;;;;;;5.62;84.63;99349.41;6168759;23;20017;-79
2022/11/19 11:06:49;;;;;;;12.45;7.22;;;;;;;5.59;83.08;99349.59;6142607;23;20094;-79
2022/11/19 11:09:39;;;;;;;14.45;7.43;;;;;;;5.66;83.58;99350.00;6145337;23;20033;-79
2022/11/19 11:15:20;;;;;;;12.88;6.93;;;;;;;5.63;83.48;99352.84;6121147;23;20025;-79
2022/11/19 11:17:50;;;;;;;12.60;6.90;;;;;;;5.81;82.64;99354.09;6125973;23;20025;-80
2022/11/19 11:20:17;;;;;;;13.30;7.65;;;;;;;5.78;82.30;99348.22;6169465;23;20029;-79
2022/11/19 11:22:45;;;;;;;11.93;7.38;;;;;;;5.66;83.54;99352.63;6145792;23;20026;-79
2022/11/19 11:25:21;;;;;;;12.13;6.68;;;;;;;5.70;83.63;99350.56;6169022;23;20022;-80
2022/11/19 11:28:09;;;;;;;16.63;8.73;;;;;;;5.63;82.62;99355.50;6169740;23;20034;-79
2022/11/19 11:30:35;;;;;;;12.02;7.50;;;;;;;5.68;81.93;99352.53;6124727;23;20089;-79
2022/11/19 11:33:34;;;;;;;11.93;7.55;;;;;;;5.56;82.67;99349.00;6143858;23;20028;-81
2022/11/19 11:36:05;;;;;;;15.07;7.78;;;;;;;5.61;82.28;99346.88;6148767;23;20026;-80
2022/11/19 11:38:39;;;;;;;13.02;7.55;;;;;;;5.61;82.46;99350.31;6194720;23;20072;-80
2022/11/19 11:41:08;;;;;;;12.30;6.65;;;;;;;5.61;83.17;99341.59;6142767;23;20017;-80
2022/11/19 11:44:00;;;;;;;11.13;6.40;;;;;;;5.59;83.18;99340.88;6117483;23;20021;-81
2022/11/19 11:46:51;;;;;;;11.75;6.45;;;;;;;5.52;82.99;99329.97;6193869;23;20335;-80
2022/11/19 11:49:28;;;;;;;11.85;6.53;;;;;;;5.49;83.29;99324.09;6121797;23;20033;-80
2022/11/19 11:52:01;;;;;;;10.95;6.57;;;;;;;5.55;82.57;99324.47;6167896;23;20038;-80
2022/11/19 11:54:27;;;;;;;16.97;7.30;;;;;;;5.58;83.46;99331.31;6144379;23;20077;-80
2022/11/19 11:57:16;;;;;;;11.52;6.07;;;;;;;5.55;82.82;99339.44;6194860;23;20017;-80
2022/11/19 11:59:43;;;;;;;11.80;6.60;;;;;;;5.56;83.40;99338.47;6126569;23;20026;-80
2022/11/19 12:02:32;;;;;;;9.75;5.95;;;;;;;5.59;81.47;99335.59;6192903;23;20026;-80
2022/11/19 12:05:12;;;;;;;8.65;5.07;;;;;;;5.56;82.07;99334.03;6145992;23;20048;-80
2022/11/19 12:08:04;;;;;;;10.50;5.72;;;;;;;5.51;82.33;99337.97;6193371;23;20341;-80
2022/11/19 12:11:00;;;;;;;8.60;5.25;;;;;;;5.39;83.19;99332.69;6119932;23;20032;-81
2022/11/19 12:13:58;;;;;;;10.40;5.55;;;;;;;5.31;83.86;99334.19;6045157;23;20845;-80
2022/11/19 12:16:37;;;;;;;8.85;5.00;;;;;;;5.49;83.26;99343.34;6107079;23;20026;-80
2022/11/19 12:19:17;;;;;;;8.55;4.82;;;;;;;5.46;83.72;99340.13;6111479;23;20092;-80
2022/11/19 12:22:08;;;;;;;7.68;4.50;;;;;;;5.27;84.13;99338.88;6144671;23;20449;-80
2022/11/19 12:25:16;;;;;;;10.15;5.03;;;;;;;5.28;84.70;99343.16;6146150;22;20037;-79